Aeroporto :







RITROVATECI SU...

 
LOGIN :

Iscrizione | Disclaimer

   EN    FR    IT 

 









Sommario :    VFR   VFR Marginale   IFR   IFR Intensivo   IFR Molto Intensivo
Visibilità : 
Base nubi : 
>= 8 km
>= 3000ft
5 / 8 km
1000 / 3000 ft
1500m / 5 km
500 / 1000 ft
800 / 1500m
200 / 500 ft
< 800m
< 200 ft
Simboli :   Temporali  Nebbia  Neve Forte  Precipitazioni Forti  Vento > 20 kt






- Altitudine del aeroporto : 477 ft
- Codice IATA : YHZ


CYHZ - Halifax Stanfield Int.

ULTIMO METAR :
  • 221000Z 11003KT 15SM SCT180 M12/M16 A3037 RMK CI3 SLP299

METARs OBSOLETI :
  • 220900Z 11003KT 15SM FEW130 M14/M16 A3036 RMK AC2 SLP296
  • 220800Z 14006KT 15SM FEW130 M14/M16 A3037 RMK AC1 SLP300

TAF TAF CYHZ
Valido dal 22 a 09 ore il 23 a 06 ore UTC


220838Z 2209/2306 16005KT P6SM FEW130
FM221200 16005KT P6SM BKN070
FM222300 19005KT P6SM SCT025
FM230500 21008KT P6SM BKN020 RMK NXT FCST BY 221200Z



MetMap, La meteo Aeronautica in un colpo d'occhio ! - Copyright ORBIFLY Dicembre 2007 - Disclaimer

ORBIFLY MET'MAP TEAM :

Programmazione e sviluppo : Alexandra Zaïnal
Concezione : Baudouin d'Aumeries
Aiuto per la programmazione : Marc-Olivier Méhu
Supporto tecnico e logistico : Manuel Goepfert
Aiuto per la traduzione : Arnaldo La Scala

Contatto : metmap@orbifly.com




FONTI E CREDITI :

   NOAA